Capitán Av. Selin Zeitun Lopez Airport

Airport
ICAO code: 
SLRI
IATA Code: 
RIB
Summary
ICAO Region: 
CARSAM
Territory: 
Location: 
Riberalta, El Beni
Serving: 
Riberalta
Elevation: 
462 ft
Coordinates: 
Aerial View: 
11° 0' 33.457" S, 66° 4' 25.905" W
Metar
Observation
SLRI 281200Z 35008KT 9999 FEW015 BKN200 26/24 Q1010
Station
Riberalta
Date/Time
2022-01-28 12:00:00
Wind direction
350°
Wind speed
08 kts
Lowest cloud amount
few clouds
Temperature
26°C
Dew point
24°C
Humidity
88%
QNH
1010 hPa
Weather condition
n/a

Airport serving Riberalta, a port city on the Beni River in the Beni Department of Bolivia. The airport is in the western section of the city, near the confluence of the Beni and Madre de Dios Rivers.

Climatology

Tropical Savanna climate (Köppen climate classification Aw).

Runways

Designator Length Width Surface Rops
13/31 1800 0 UNK No/No
Airport map: 
Aerial View: 

SKYbrary Partners:

Safety knowledge contributed by: